createdAt,value
2019-02-24T00:01:51.623Z,4.40
2019-02-24T00:04:23.698Z,4.77
2019-02-24T00:06:56.227Z,5.73
2019-02-24T00:09:28.404Z,5.43
2019-02-24T00:12:00.376Z,5.23
2019-02-24T00:14:32.433Z,5.00
2019-02-24T00:17:04.516Z,4.83
2019-02-24T00:19:36.567Z,5.07
2019-02-24T00:22:08.518Z,4.33
2019-02-24T00:24:40.487Z,3.87
2019-02-24T00:27:12.419Z,4.40
2019-02-24T00:29:44.368Z,5.33
2019-02-24T00:32:16.415Z,5.03
2019-02-24T00:34:48.334Z,6.13
2019-02-24T00:37:20.269Z,4.90
2019-02-24T00:39:52.346Z,4.77
2019-02-24T00:42:24.368Z,4.50
2019-02-24T00:44:56.465Z,5.07
2019-02-24T00:47:28.491Z,4.20
2019-02-24T00:50:00.522Z,4.33
2019-02-24T00:52:32.546Z,3.90
2019-02-24T00:55:04.845Z,4.03
2019-02-24T00:57:36.882Z,3.87
2019-02-24T01:00:10.177Z,4.33
2019-02-24T01:02:42.235Z,3.50
2019-02-24T01:05:14.276Z,3.83
2019-02-24T01:07:46.400Z,4.50
2019-02-24T01:10:18.425Z,4.80
2019-02-24T01:12:50.527Z,4.33
2019-02-24T01:15:22.551Z,4.30
2019-02-24T01:17:54.571Z,4.23
2019-02-24T01:20:26.594Z,3.80
2019-02-24T01:22:58.614Z,4.03
2019-02-24T01:25:30.647Z,4.07
2019-02-24T01:28:02.665Z,4.57
2019-02-24T01:30:34.994Z,4.40
2019-02-24T01:33:07.021Z,4.40
2019-02-24T01:35:39.044Z,4.23
2019-02-24T01:38:11.077Z,4.47
2019-02-24T01:40:43.192Z,3.80
2019-02-24T01:43:15.268Z,4.00
2019-02-24T01:45:47.284Z,3.17
2019-02-24T01:48:21.121Z,2.83
2019-02-24T01:50:53.308Z,3.10
2019-02-24T01:53:25.326Z,3.73
2019-02-24T01:55:57.338Z,3.57
2019-02-24T01:58:35.167Z,4.17
2019-02-24T02:01:03.382Z,3.67
2019-02-24T02:03:35.577Z,3.20
2019-02-24T02:06:07.671Z,3.37
2019-02-24T02:08:39.736Z,3.10
2019-02-24T02:11:11.754Z,2.70
2019-02-24T02:13:43.776Z,3.00
2019-02-24T02:16:15.882Z,4.27
2019-02-24T02:18:47.980Z,3.90
2019-02-24T02:21:20.018Z,3.90
2019-02-24T02:23:52.104Z,4.60
2019-02-24T02:26:24.309Z,4.47
2019-02-24T02:28:56.414Z,4.13
2019-02-24T02:31:28.442Z,3.70
2019-02-24T02:34:00.538Z,3.10
2019-02-24T02:36:32.634Z,3.77
2019-02-24T02:39:05.468Z,4.40
2019-02-24T02:41:38.907Z,3.60
2019-02-24T02:44:11.081Z,2.50
2019-02-24T02:46:43.189Z,4.30
2019-02-24T02:49:15.289Z,4.00
2019-02-24T02:51:47.401Z,3.20
2019-02-24T02:54:19.416Z,4.10
2019-02-24T02:56:51.539Z,3.73
2019-02-24T02:59:24.008Z,3.30
2019-02-24T03:01:56.104Z,3.30
2019-02-24T03:04:28.205Z,3.67
2019-02-24T03:07:15.332Z,4.33
2019-02-24T03:09:47.539Z,3.90
2019-02-24T03:12:19.761Z,3.47
2019-02-24T03:14:51.810Z,4.00
2019-02-24T03:17:24.506Z,4.43
2019-02-24T03:19:56.519Z,4.67
2019-02-24T03:22:28.622Z,4.77
2019-02-24T03:25:01.027Z,4.40
2019-02-24T03:27:33.139Z,4.73
2019-02-24T03:30:05.355Z,5.30
2019-02-24T03:32:37.462Z,4.13
2019-02-24T03:35:09.759Z,4.17
2019-02-24T03:37:41.864Z,4.27
2019-02-24T03:40:13.992Z,3.77
2019-02-24T03:42:46.087Z,3.60
2019-02-24T03:45:18.112Z,3.37
2019-02-24T03:47:50.137Z,4.20
2019-02-24T03:50:22.240Z,3.47
2019-02-24T03:52:54.353Z,2.90
2019-02-24T03:55:26.545Z,3.10
2019-02-24T03:58:00.323Z,3.57
2019-02-24T04:00:32.676Z,3.43
2019-02-24T04:03:04.967Z,3.40
2019-02-24T04:05:36.951Z,3.87
2019-02-24T04:08:08.968Z,3.87
2019-02-24T04:10:41.041Z,3.10
2019-02-24T04:13:13.099Z,4.17
2019-02-24T04:15:45.185Z,3.47
2019-02-24T04:18:17.213Z,3.60
2019-02-24T04:20:49.338Z,3.60
2019-02-24T04:23:21.437Z,4.13
2019-02-24T04:25:53.452Z,3.63
2019-02-24T04:28:25.492Z,3.37
2019-02-24T04:30:57.521Z,3.00
2019-02-24T04:33:29.627Z,3.30
2019-02-24T04:36:01.720Z,3.00
2019-02-24T04:38:33.752Z,3.23
2019-02-24T04:41:05.990Z,4.00
2019-02-24T04:43:38.073Z,4.03
2019-02-24T04:46:10.159Z,3.10
2019-02-24T04:48:42.214Z,3.60
2019-02-24T04:51:14.253Z,2.97
2019-02-24T04:53:46.351Z,2.90
2019-02-24T04:56:18.364Z,2.80
2019-02-24T04:58:50.466Z,2.67
2019-02-24T05:01:22.467Z,3.00
2019-02-24T05:03:54.589Z,2.93
2019-02-24T05:06:26.610Z,2.50
2019-02-24T05:08:58.845Z,3.03
2019-02-24T05:11:30.980Z,3.90
2019-02-24T05:14:03.070Z,3.23
2019-02-24T05:16:35.098Z,3.07
2019-02-24T05:19:06.806Z,3.80
2019-02-24T05:21:38.904Z,3.00
2019-02-24T05:24:11.496Z,3.93
2019-02-24T05:26:43.593Z,3.57
2019-02-24T05:29:15.703Z,3.87
2019-02-24T05:31:47.742Z,3.53
2019-02-24T05:34:19.844Z,4.20
2019-02-24T05:36:51.943Z,4.20
2019-02-24T05:39:26.295Z,3.47
2019-02-24T05:41:58.419Z,3.50
2019-02-24T05:44:32.161Z,4.00
2019-02-24T05:47:04.252Z,3.40
2019-02-24T05:49:37.137Z,3.33
2019-02-24T05:52:09.353Z,3.43
2019-02-24T05:54:41.553Z,3.13
2019-02-24T05:57:13.588Z,2.97
2019-02-24T05:59:54.666Z,3.20
2019-02-24T06:02:19.333Z,3.30
2019-02-24T06:04:51.427Z,3.23
2019-02-24T06:07:23.439Z,3.70
2019-02-24T06:09:55.532Z,3.50
2019-02-24T06:12:27.677Z,3.10
2019-02-24T06:14:59.782Z,3.40
2019-02-24T06:17:31.880Z,3.00
2019-02-24T06:20:04.016Z,2.63
2019-02-24T06:22:36.108Z,2.77
2019-02-24T06:25:08.162Z,3.37
2019-02-24T06:27:40.256Z,3.23
2019-02-24T06:30:12.558Z,3.77
2019-02-24T06:32:44.661Z,3.67
2019-02-24T06:35:16.764Z,3.83
2019-02-24T06:37:48.862Z,3.30
2019-02-24T06:40:20.887Z,5.17
2019-02-24T06:42:52.980Z,4.70
2019-02-24T06:45:24.875Z,4.27
2019-02-24T06:47:56.816Z,3.27
2019-02-24T06:50:35.454Z,3.80
2019-02-24T06:53:04.841Z,3.63
2019-02-24T06:55:36.784Z,3.60
2019-02-24T06:58:08.731Z,3.93
2019-02-24T07:00:40.657Z,3.63
2019-02-24T07:03:12.588Z,4.07
2019-02-24T07:05:44.531Z,4.30
2019-02-24T07:08:16.589Z,5.43
2019-02-24T07:10:49.753Z,4.13
2019-02-24T07:13:22.904Z,5.00
2019-02-24T07:15:55.686Z,5.03
2019-02-24T07:18:28.526Z,4.17
2019-02-24T07:21:00.764Z,4.40
2019-02-24T07:23:32.698Z,4.07
2019-02-24T07:26:04.646Z,3.80
2019-02-24T07:28:36.573Z,3.37
2019-02-24T07:31:08.505Z,3.27
2019-02-24T07:33:40.791Z,3.27
2019-02-24T07:36:12.853Z,3.57
2019-02-24T07:38:44.755Z,3.20
2019-02-24T07:41:16.817Z,4.70
2019-02-24T07:43:48.848Z,6.00
2019-02-24T07:46:20.853Z,5.20
2019-02-24T07:48:52.872Z,4.50
2019-02-24T07:51:24.889Z,5.03
2019-02-24T07:53:56.925Z,4.43
2019-02-24T07:56:29.007Z,4.87
2019-02-24T07:59:01.127Z,5.13
2019-02-24T08:01:33.239Z,4.67
2019-02-24T08:04:05.335Z,5.17
2019-02-24T08:06:37.572Z,5.23
2019-02-24T08:09:09.607Z,4.57
2019-02-24T08:11:41.656Z,5.63
2019-02-24T08:14:21.055Z,5.37
2019-02-24T08:16:53.152Z,5.67
2019-02-24T08:19:25.227Z,5.30
2019-02-24T08:21:57.159Z,5.20
2019-02-24T08:24:29.270Z,4.53
2019-02-24T08:27:01.321Z,4.93
2019-02-24T08:29:33.243Z,4.57
2019-02-24T08:32:05.291Z,4.97
2019-02-24T08:34:37.316Z,4.63
2019-02-24T08:37:09.417Z,4.50
2019-02-24T08:39:41.431Z,4.43
2019-02-24T08:42:13.534Z,4.47
2019-02-24T08:44:45.622Z,4.63
2019-02-24T08:47:17.715Z,4.97
2019-02-24T08:49:49.733Z,4.63
2019-02-24T08:52:21.837Z,5.28
2019-02-24T08:54:54.086Z,4.47
2019-02-24T08:57:30.777Z,4.70
2019-02-24T09:00:11.236Z,4.27
2019-02-24T09:02:46.341Z,4.47
2019-02-24T09:05:23.436Z,4.87
2019-02-24T09:07:56.647Z,4.97
2019-02-24T09:10:29.841Z,4.73
2019-02-24T09:13:02.680Z,5.20
2019-02-24T09:15:34.766Z,4.33
2019-02-24T09:18:06.871Z,3.80
2019-02-24T09:20:38.838Z,3.33
2019-02-24T09:23:10.767Z,3.27
2019-02-24T09:25:42.705Z,3.87
2019-02-24T09:28:14.650Z,4.00
2019-02-24T09:30:46.584Z,4.60
2019-02-24T09:33:18.619Z,3.17
2019-02-24T09:35:51.781Z,3.70
2019-02-24T09:38:23.777Z,3.47
2019-02-24T09:40:55.711Z,4.10
2019-02-24T09:43:27.652Z,3.83
2019-02-24T09:45:59.577Z,3.30
2019-02-24T09:48:31.508Z,3.43
2019-02-24T09:51:03.490Z,2.70
2019-02-24T09:53:35.605Z,3.30
2019-02-24T09:56:07.525Z,3.40
2019-02-24T09:58:39.480Z,3.83
2019-02-24T10:01:11.427Z,3.00
2019-02-24T10:03:43.397Z,3.40
2019-02-24T10:06:15.357Z,2.83
2019-02-24T10:08:47.477Z,3.00
2019-02-24T10:11:19.405Z,2.80
2019-02-24T10:13:51.378Z,2.63
2019-02-24T10:16:23.906Z,3.10
2019-02-24T10:18:55.829Z,2.87
2019-02-24T10:21:34.133Z,2.83
2019-02-24T10:24:06.391Z,3.20
2019-02-24T10:26:38.399Z,3.60
2019-02-24T10:29:10.462Z,3.80
2019-02-24T10:31:42.703Z,4.33
2019-02-24T10:34:14.732Z,3.90
2019-02-24T10:36:46.815Z,3.87
2019-02-24T10:39:18.852Z,3.57
2019-02-24T10:41:54.280Z,4.73
2019-02-24T10:44:26.707Z,4.23
2019-02-24T10:46:58.798Z,4.23
2019-02-24T10:49:30.818Z,3.90
2019-02-24T10:52:02.917Z,3.70
2019-02-24T10:54:34.947Z,4.10
2019-02-24T10:57:11.711Z,4.10
2019-02-24T10:59:40.754Z,4.10
2019-02-24T11:02:12.849Z,3.60
2019-02-24T11:04:44.952Z,3.93
2019-02-24T11:07:16.967Z,2.77
2019-02-24T11:09:48.987Z,3.67
2019-02-24T11:12:21.202Z,3.43
2019-02-24T11:14:53.254Z,3.10
2019-02-24T11:17:25.268Z,3.87
2019-02-24T11:19:57.286Z,3.03
2019-02-24T11:22:29.296Z,4.10
2019-02-24T11:25:01.382Z,2.90
2019-02-24T11:27:33.405Z,3.70
2019-02-24T11:30:05.770Z,3.80
2019-02-24T11:32:37.773Z,2.37
2019-02-24T11:35:10.245Z,3.00
2019-02-24T11:37:42.446Z,2.90
2019-02-24T11:40:14.679Z,3.60
2019-02-24T11:42:46.688Z,4.93
2019-02-24T11:45:18.812Z,3.57
2019-02-24T11:47:50.827Z,3.33
2019-02-24T11:50:25.796Z,4.27
2019-02-24T11:52:58.051Z,3.80
2019-02-24T11:55:30.079Z,4.20
2019-02-24T11:58:02.172Z,3.37
2019-02-24T12:00:35.303Z,4.13
2019-02-24T12:03:07.688Z,3.07
2019-02-24T12:05:39.731Z,2.80
2019-02-24T12:08:11.826Z,4.07
2019-02-24T12:10:43.868Z,4.10
2019-02-24T12:13:15.951Z,3.10
2019-02-24T12:15:48.096Z,4.13
2019-02-24T12:18:20.181Z,3.50
2019-02-24T12:20:52.198Z,3.23
2019-02-24T12:23:24.222Z,3.17
2019-02-24T12:25:56.323Z,3.43
2019-02-24T12:28:28.426Z,2.80
2019-02-24T12:31:00.524Z,3.30
2019-02-24T12:33:32.620Z,3.13
2019-02-24T12:36:04.727Z,2.47
2019-02-24T12:38:37.060Z,4.10
2019-02-24T12:41:09.259Z,3.27
2019-02-24T12:43:41.271Z,2.90
2019-02-24T12:46:13.280Z,3.97
2019-02-24T12:48:45.307Z,3.97
2019-02-24T12:51:17.329Z,3.20
2019-02-24T12:53:49.343Z,2.67
2019-02-24T12:56:21.355Z,2.53
2019-02-24T12:58:53.361Z,2.47
2019-02-24T13:01:25.366Z,3.00
2019-02-24T13:03:57.446Z,2.90
2019-02-24T13:06:29.478Z,3.13
2019-02-24T13:09:01.573Z,3.57
2019-02-24T13:11:33.697Z,2.90
2019-02-24T13:14:05.720Z,2.60
2019-02-24T13:16:37.736Z,2.13
2019-02-24T13:19:09.782Z,2.80
2019-02-24T13:21:41.907Z,2.70
2019-02-24T13:24:14.118Z,3.13
2019-02-24T13:26:47.782Z,2.97
2019-02-24T13:29:19.952Z,2.93
2019-02-24T13:31:52.044Z,3.37
2019-02-24T13:34:24.133Z,3.10
2019-02-24T13:36:56.233Z,2.80
2019-02-24T13:39:28.313Z,2.50
2019-02-24T13:42:00.331Z,2.60
2019-02-24T13:44:32.348Z,2.93
2019-02-24T13:47:04.364Z,2.30
2019-02-24T13:49:36.456Z,2.10
2019-02-24T13:52:08.479Z,2.07
2019-02-24T13:54:40.582Z,2.70
2019-02-24T13:57:12.605Z,3.20
2019-02-24T13:59:44.614Z,2.80
2019-02-24T14:02:23.891Z,2.93
2019-02-24T14:04:50.354Z,2.70
2019-02-24T14:07:22.445Z,2.50
2019-02-24T14:09:54.545Z,1.90
2019-02-24T14:12:26.682Z,2.20
2019-02-24T14:14:58.694Z,1.90
2019-02-24T14:17:30.711Z,2.80
2019-02-24T14:20:02.721Z,2.50
2019-02-24T14:22:34.738Z,2.60
2019-02-24T14:25:07.362Z,2.53
2019-02-24T14:27:39.455Z,2.40
2019-02-24T14:30:13.870Z,2.03
2019-02-24T14:32:45.895Z,2.40
2019-02-24T14:35:17.995Z,2.80
2019-02-24T14:37:50.192Z,2.53
2019-02-24T14:40:22.236Z,2.80
2019-02-24T14:42:54.254Z,2.53
2019-02-24T14:45:26.436Z,2.30
2019-02-24T14:47:58.456Z,2.30
2019-02-24T14:50:30.432Z,2.30
2019-02-24T14:53:02.517Z,3.10
2019-02-24T14:55:34.604Z,3.57
2019-02-24T14:58:06.710Z,3.30
2019-02-24T15:00:38.888Z,2.77
2019-02-24T15:03:10.910Z,3.40
2019-02-24T15:05:42.925Z,3.07
2019-02-24T15:08:14.938Z,3.40
2019-02-24T15:10:48.304Z,3.07
2019-02-24T15:13:20.455Z,3.27
2019-02-24T15:15:52.566Z,3.40
2019-02-24T15:18:24.573Z,3.10
2019-02-24T15:20:56.582Z,3.13
2019-02-24T15:23:28.627Z,2.97
2019-02-24T15:26:00.817Z,2.83
2019-02-24T15:28:34.823Z,3.40
2019-02-24T15:31:06.917Z,2.80
2019-02-24T15:33:39.056Z,3.00
2019-02-24T15:36:12.738Z,2.97
2019-02-24T15:38:44.833Z,2.77
2019-02-24T15:41:16.848Z,2.43
2019-02-24T15:43:48.881Z,2.93
2019-02-24T15:46:20.971Z,2.70
2019-02-24T15:48:53.066Z,2.73
2019-02-24T15:51:25.154Z,3.00
2019-02-24T15:53:57.256Z,2.17
2019-02-24T15:56:29.338Z,3.13
2019-02-24T15:59:01.354Z,2.53
2019-02-24T16:01:33.367Z,1.60
2019-02-24T16:04:05.481Z,2.37
2019-02-24T16:06:37.574Z,3.30
2019-02-24T16:09:10.705Z,2.43
2019-02-24T16:11:42.862Z,1.80
2019-02-24T16:14:14.955Z,2.33
2019-02-24T16:16:47.047Z,1.80
2019-02-24T16:19:19.130Z,2.33
2019-02-24T16:21:51.145Z,3.53
2019-02-24T16:24:23.299Z,2.83
2019-02-24T16:26:55.385Z,2.90
2019-02-24T16:29:27.478Z,2.30
2019-02-24T16:31:59.487Z,2.40
2019-02-24T16:34:31.495Z,2.30
2019-02-24T16:37:03.522Z,2.03
2019-02-24T16:39:35.506Z,1.93
2019-02-24T16:42:07.426Z,2.20
2019-02-24T16:44:39.726Z,2.17
2019-02-24T16:47:11.656Z,1.80
2019-02-24T16:49:43.591Z,2.87
2019-02-24T16:52:15.853Z,2.47
2019-02-24T16:54:52.632Z,2.33
2019-02-24T16:57:21.432Z,2.63
2019-02-24T16:59:53.364Z,2.50
2019-02-24T17:02:25.295Z,2.50
2019-02-24T17:04:57.262Z,2.57
2019-02-24T17:07:29.193Z,2.40
2019-02-24T17:10:01.107Z,2.50
2019-02-24T17:12:34.421Z,2.77
2019-02-24T17:15:07.100Z,3.07
2019-02-24T17:17:39.030Z,7.27
2019-02-24T17:20:13.563Z,5.97
2019-02-24T17:22:45.503Z,4.93
2019-02-24T17:25:17.457Z,3.77
2019-02-24T17:27:49.385Z,2.70
2019-02-24T17:30:23.580Z,3.33
2019-02-24T17:32:55.051Z,3.37
2019-02-24T17:35:26.977Z,2.50
2019-02-24T17:37:58.921Z,3.50
2019-02-24T17:40:30.855Z,3.70
2019-02-24T17:43:02.782Z,3.33
2019-02-24T17:45:34.724Z,3.93
2019-02-24T17:48:06.663Z,4.67
2019-02-24T17:50:38.600Z,6.70
2019-02-24T17:53:10.534Z,5.40
2019-02-24T17:55:42.480Z,6.40
2019-02-24T17:58:14.448Z,5.40
2019-02-24T18:00:50.912Z,5.00
2019-02-24T18:03:22.831Z,4.40
2019-02-24T18:05:54.886Z,4.37
2019-02-24T18:08:28.419Z,4.87
2019-02-24T18:11:00.478Z,5.37
2019-02-24T18:13:32.480Z,6.70
2019-02-24T18:16:04.420Z,5.80
2019-02-24T18:18:43.847Z,6.30
2019-02-24T18:21:15.791Z,6.53
2019-02-24T18:23:47.734Z,5.43
2019-02-24T18:26:19.658Z,5.60
2019-02-24T18:28:51.602Z,5.63
2019-02-24T18:31:23.526Z,5.20
2019-02-24T18:33:55.457Z,4.77
2019-02-24T18:36:27.386Z,4.30
2019-02-24T18:38:59.327Z,4.30
2019-02-24T18:41:31.254Z,4.33
2019-02-24T18:44:03.208Z,5.07
2019-02-24T18:46:35.145Z,4.83
2019-02-24T18:49:07.079Z,4.20
2019-02-24T18:51:39.017Z,4.00
2019-02-24T18:54:10.956Z,5.40
2019-02-24T18:56:42.978Z,5.07
2019-02-24T18:59:14.917Z,4.70
2019-02-24T19:01:46.845Z,4.53
2019-02-24T19:04:19.715Z,5.50
2019-02-24T19:06:51.650Z,5.67
2019-02-24T19:09:23.586Z,5.13
2019-02-24T19:11:55.573Z,7.23
2019-02-24T19:14:27.510Z,8.47
2019-02-24T19:16:59.455Z,7.33
2019-02-24T19:19:31.389Z,6.93
2019-02-24T19:22:03.390Z,7.47
2019-02-24T19:24:37.231Z,8.33
2019-02-24T19:27:08.982Z,6.87
2019-02-24T19:29:40.737Z,6.33
2019-02-24T19:32:12.698Z,7.30
2019-02-24T19:34:44.648Z,7.47
2019-02-24T19:37:16.588Z,7.70
2019-02-24T19:39:48.537Z,7.07
2019-02-24T19:42:20.473Z,9.40
2019-02-24T19:44:52.421Z,7.33
2019-02-24T19:47:24.357Z,6.90
2019-02-24T19:49:56.295Z,6.07
2019-02-24T19:52:28.493Z,6.10
2019-02-24T19:55:00.453Z,6.87
2019-02-24T19:57:32.398Z,6.47
2019-02-24T20:00:04.621Z,6.90
2019-02-24T20:02:36.571Z,5.30
2019-02-24T20:05:08.986Z,6.20
2019-02-24T20:07:40.980Z,6.43
2019-02-24T20:10:15.382Z,6.50
2019-02-24T20:12:47.633Z,6.70
2019-02-24T20:15:19.879Z,6.97
2019-02-24T20:17:52.291Z,7.43
2019-02-24T20:20:24.233Z,8.83
2019-02-24T20:22:56.170Z,9.50
2019-02-24T20:25:28.090Z,8.63
2019-02-24T20:28:00.020Z,7.40
2019-02-24T20:30:31.991Z,7.30
2019-02-24T20:33:03.936Z,7.60
2019-02-24T20:35:35.915Z,7.37
2019-02-24T20:38:07.832Z,6.13
2019-02-24T20:40:39.772Z,7.47
2019-02-24T20:43:11.729Z,6.57
2019-02-24T20:45:43.671Z,6.47
2019-02-24T20:48:15.805Z,6.43
2019-02-24T20:50:47.742Z,6.77
2019-02-24T20:53:19.658Z,5.50
2019-02-24T20:55:51.702Z,5.73
2019-02-24T20:58:24.046Z,5.83
2019-02-24T21:00:56.598Z,8.67
2019-02-24T21:03:29.213Z,7.20
2019-02-24T21:06:01.191Z,7.60
2019-02-24T21:08:33.088Z,6.70
2019-02-24T21:11:05.018Z,7.63
2019-02-24T21:13:36.923Z,9.03
2019-02-24T21:16:08.885Z,9.73
2019-02-24T21:18:40.871Z,8.33
2019-02-24T21:21:12.806Z,7.77
2019-02-24T21:23:45.969Z,6.40
2019-02-24T21:26:17.909Z,5.47
2019-02-24T21:28:49.807Z,6.90
2019-02-24T21:31:21.747Z,6.30
2019-02-24T21:33:57.055Z,7.40
2019-02-24T21:36:29.749Z,7.47
2019-02-24T21:39:01.734Z,8.93
2019-02-24T21:41:33.764Z,8.33
2019-02-24T21:44:05.769Z,6.40
2019-02-24T21:46:37.703Z,8.30
2019-02-24T21:49:09.670Z,7.57
2019-02-24T21:51:41.596Z,6.10
2019-02-24T21:54:13.533Z,8.67
2019-02-24T21:56:45.481Z,7.50
2019-02-24T21:59:17.386Z,7.13
2019-02-24T22:01:49.418Z,7.10
2019-02-24T22:04:21.322Z,7.63
2019-02-24T22:06:53.287Z,7.07
2019-02-24T22:09:25.200Z,6.83
2019-02-24T22:11:57.142Z,6.53
2019-02-24T22:14:29.033Z,6.47
2019-02-24T22:17:00.966Z,5.93
2019-02-24T22:19:32.861Z,5.43
2019-02-24T22:22:04.789Z,4.53
2019-02-24T22:24:36.685Z,4.57
2019-02-24T22:27:08.626Z,6.23
2019-02-24T22:29:40.513Z,5.10
2019-02-24T22:32:12.448Z,4.33
2019-02-24T22:34:44.333Z,6.40
2019-02-24T22:37:16.262Z,5.50
2019-02-24T22:39:48.515Z,5.50
2019-02-24T22:42:20.544Z,5.70
2019-02-24T22:44:52.471Z,5.30
2019-02-24T22:47:24.422Z,4.83
2019-02-24T22:49:56.312Z,5.60
2019-02-24T22:52:28.249Z,5.70
2019-02-24T22:55:00.324Z,5.23
2019-02-24T22:57:32.542Z,5.53
2019-02-24T23:00:07.565Z,5.53
2019-02-24T23:02:39.707Z,5.57
2019-02-24T23:05:13.370Z,5.47
2019-02-24T23:07:45.374Z,5.43
2019-02-24T23:10:17.261Z,5.67
2019-02-24T23:12:49.214Z,6.20
2019-02-24T23:15:21.117Z,5.90
2019-02-24T23:17:53.070Z,6.10
2019-02-24T23:20:24.974Z,5.90
2019-02-24T23:22:56.919Z,5.23
2019-02-24T23:25:28.807Z,6.00
2019-02-24T23:28:00.826Z,5.60
2019-02-24T23:30:32.817Z,4.73
2019-02-24T23:33:04.757Z,4.60
2019-02-24T23:35:36.749Z,4.57
2019-02-24T23:38:08.679Z,4.63
2019-02-24T23:40:40.583Z,4.53
2019-02-24T23:43:12.512Z,4.83
2019-02-24T23:45:44.533Z,5.37
2019-02-24T23:48:16.563Z,4.80
2019-02-24T23:50:48.472Z,6.33
2019-02-24T23:53:21.154Z,6.13
2019-02-24T23:55:53.342Z,5.23
2019-02-24T23:58:25.259Z,4.33
